sensor_id;sensor_type;location;lat;lon;timestamp;P1;durP1;ratioP1;P2;durP2;ratioP2
5959;SDS011;3006;50.956;7.002;2024-01-30T00:00:41;16.13;;;9.43;;
5959;SDS011;3006;50.956;7.002;2024-01-30T00:03:09;19.37;;;10.50;;
5959;SDS011;3006;50.956;7.002;2024-01-30T00:05:38;13.87;;;9.70;;
5959;SDS011;3006;50.956;7.002;2024-01-30T00:08:06;15.90;;;11.87;;
5959;SDS011;3006;50.956;7.002;2024-01-30T00:10:34;11.77;;;9.50;;
5959;SDS011;3006;50.956;7.002;2024-01-30T00:13:04;12.90;;;9.83;;
5959;SDS011;3006;50.956;7.002;2024-01-30T00:15:32;11.53;;;8.80;;
5959;SDS011;3006;50.956;7.002;2024-01-30T00:18:01;13.47;;;10.37;;
5959;SDS011;3006;50.956;7.002;2024-01-30T00:20:29;10.37;;;9.27;;
5959;SDS011;3006;50.956;7.002;2024-01-30T00:22:57;17.40;;;10.10;;
5959;SDS011;3006;50.956;7.002;2024-01-30T00:25:25;13.07;;;10.30;;
5959;SDS011;3006;50.956;7.002;2024-01-30T00:27:53;13.90;;;9.33;;
5959;SDS011;3006;50.956;7.002;2024-01-30T00:30:23;12.57;;;9.60;;
5959;SDS011;3006;50.956;7.002;2024-01-30T00:32:51;10.97;;;9.50;;
5959;SDS011;3006;50.956;7.002;2024-01-30T00:35:19;14.63;;;9.97;;
5959;SDS011;3006;50.956;7.002;2024-01-30T00:37:49;14.57;;;10.77;;
5959;SDS011;3006;50.956;7.002;2024-01-30T00:40:17;12.77;;;9.90;;
5959;SDS011;3006;50.956;7.002;2024-01-30T00:42:45;9.93;;;8.73;;
5959;SDS011;3006;50.956;7.002;2024-01-30T00:45:13;11.20;;;9.90;;
5959;SDS011;3006;50.956;7.002;2024-01-30T00:47:43;17.03;;;10.00;;
5959;SDS011;3006;50.956;7.002;2024-01-30T00:50:11;19.90;;;9.70;;
5959;SDS011;3006;50.956;7.002;2024-01-30T00:52:39;13.50;;;9.80;;
5959;SDS011;3006;50.956;7.002;2024-01-30T00:55:08;16.00;;;9.97;;
5959;SDS011;3006;50.956;7.002;2024-01-30T00:57:37;12.70;;;9.30;;
5959;SDS011;3006;50.956;7.002;2024-01-30T01:00:07;17.70;;;11.10;;
5959;SDS011;3006;50.956;7.002;2024-01-30T01:02:36;15.70;;;10.13;;
5959;SDS011;3006;50.956;7.002;2024-01-30T01:05:07;12.23;;;9.37;;
5959;SDS011;3006;50.956;7.002;2024-01-30T01:07:35;15.90;;;11.40;;
5959;SDS011;3006;50.956;7.002;2024-01-30T01:10:03;13.23;;;9.40;;
5959;SDS011;3006;50.956;7.002;2024-01-30T01:12:32;14.20;;;10.33;;
5959;SDS011;3006;50.956;7.002;2024-01-30T01:15:00;15.47;;;10.60;;
5959;SDS011;3006;50.956;7.002;2024-01-30T01:17:29;16.00;;;10.43;;
5959;SDS011;3006;50.956;7.002;2024-01-30T01:19:57;12.27;;;10.20;;
5959;SDS011;3006;50.956;7.002;2024-01-30T01:22:27;17.43;;;9.40;;
5959;SDS011;3006;50.956;7.002;2024-01-30T01:24:55;15.93;;;9.50;;
5959;SDS011;3006;50.956;7.002;2024-01-30T01:27:23;15.70;;;9.90;;
5959;SDS011;3006;50.956;7.002;2024-01-30T01:29:51;14.17;;;9.80;;
5959;SDS011;3006;50.956;7.002;2024-01-30T01:32:20;12.00;;;9.70;;
5959;SDS011;3006;50.956;7.002;2024-01-30T01:34:48;14.87;;;10.20;;
5959;SDS011;3006;50.956;7.002;2024-01-30T01:37:17;15.23;;;9.90;;
5959;SDS011;3006;50.956;7.002;2024-01-30T01:39:46;13.93;;;10.27;;
5959;SDS011;3006;50.956;7.002;2024-01-30T01:42:15;12.40;;;9.60;;
5959;SDS011;3006;50.956;7.002;2024-01-30T01:44:43;11.20;;;9.40;;
5959;SDS011;3006;50.956;7.002;2024-01-30T01:47:11;13.00;;;9.47;;
5959;SDS011;3006;50.956;7.002;2024-01-30T01:49:39;11.70;;;9.17;;
5959;SDS011;3006;50.956;7.002;2024-01-30T01:52:08;13.23;;;9.30;;
5959;SDS011;3006;50.956;7.002;2024-01-30T01:54:37;13.03;;;9.40;;
5959;SDS011;3006;50.956;7.002;2024-01-30T01:57:06;11.77;;;8.40;;
5959;SDS011;3006;50.956;7.002;2024-01-30T01:59:35;13.03;;;10.27;;
5959;SDS011;3006;50.956;7.002;2024-01-30T02:02:03;12.63;;;9.53;;
5959;SDS011;3006;50.956;7.002;2024-01-30T02:04:33;16.23;;;10.13;;
5959;SDS011;3006;50.956;7.002;2024-01-30T02:07:02;12.97;;;9.90;;
5959;SDS011;3006;50.956;7.002;2024-01-30T02:09:31;14.73;;;9.37;;
5959;SDS011;3006;50.956;7.002;2024-01-30T02:11:59;15.50;;;8.93;;
5959;SDS011;3006;50.956;7.002;2024-01-30T02:14:28;16.70;;;9.30;;
5959;SDS011;3006;50.956;7.002;2024-01-30T02:16:57;15.00;;;9.87;;
5959;SDS011;3006;50.956;7.002;2024-01-30T02:19:25;13.03;;;8.93;;
5959;SDS011;3006;50.956;7.002;2024-01-30T02:21:54;10.80;;;9.57;;
5959;SDS011;3006;50.956;7.002;2024-01-30T02:24:23;13.40;;;10.03;;
5959;SDS011;3006;50.956;7.002;2024-01-30T02:26:51;14.87;;;8.73;;
5959;SDS011;3006;50.956;7.002;2024-01-30T02:29:19;13.43;;;9.37;;
5959;SDS011;3006;50.956;7.002;2024-01-30T02:31:47;13.93;;;9.67;;
5959;SDS011;3006;50.956;7.002;2024-01-30T02:34:16;12.13;;;8.60;;
5959;SDS011;3006;50.956;7.002;2024-01-30T02:36:45;13.43;;;9.17;;
5959;SDS011;3006;50.956;7.002;2024-01-30T02:39:15;12.10;;;9.17;;
5959;SDS011;3006;50.956;7.002;2024-01-30T02:41:43;13.43;;;9.17;;
5959;SDS011;3006;50.956;7.002;2024-01-30T02:44:11;12.17;;;9.20;;
5959;SDS011;3006;50.956;7.002;2024-01-30T02:46:39;14.43;;;9.10;;
5959;SDS011;3006;50.956;7.002;2024-01-30T02:49:07;12.20;;;9.20;;
5959;SDS011;3006;50.956;7.002;2024-01-30T02:51:35;12.53;;;8.63;;
5959;SDS011;3006;50.956;7.002;2024-01-30T02:54:04;13.40;;;9.10;;
5959;SDS011;3006;50.956;7.002;2024-01-30T02:56:33;12.17;;;8.37;;
5959;SDS011;3006;50.956;7.002;2024-01-30T02:59:01;14.57;;;9.13;;
5959;SDS011;3006;50.956;7.002;2024-01-30T03:01:29;13.10;;;8.30;;
5959;SDS011;3006;50.956;7.002;2024-01-30T03:03:58;12.47;;;9.60;;
5959;SDS011;3006;50.956;7.002;2024-01-30T03:06:26;12.20;;;9.07;;
5959;SDS011;3006;50.956;7.002;2024-01-30T03:08:54;12.67;;;10.03;;
5959;SDS011;3006;50.956;7.002;2024-01-30T03:11:22;11.90;;;9.77;;
5959;SDS011;3006;50.956;7.002;2024-01-30T03:13:52;11.40;;;8.47;;
5959;SDS011;3006;50.956;7.002;2024-01-30T03:16:20;10.63;;;8.70;;
5959;SDS011;3006;50.956;7.002;2024-01-30T03:18:48;14.63;;;9.63;;
5959;SDS011;3006;50.956;7.002;2024-01-30T03:21:16;11.60;;;8.87;;
5959;SDS011;3006;50.956;7.002;2024-01-30T03:23:45;11.20;;;8.77;;
5959;SDS011;3006;50.956;7.002;2024-01-30T03:26:13;13.80;;;8.60;;
5959;SDS011;3006;50.956;7.002;2024-01-30T03:28:41;10.43;;;8.43;;
5959;SDS011;3006;50.956;7.002;2024-01-30T03:31:13;11.97;;;8.37;;
5959;SDS011;3006;50.956;7.002;2024-01-30T03:33:43;11.97;;;8.70;;
5959;SDS011;3006;50.956;7.002;2024-01-30T03:36:11;11.43;;;8.30;;
5959;SDS011;3006;50.956;7.002;2024-01-30T03:38:40;10.70;;;8.00;;
5959;SDS011;3006;50.956;7.002;2024-01-30T03:41:08;10.73;;;8.40;;
5959;SDS011;3006;50.956;7.002;2024-01-30T03:43:36;12.07;;;8.70;;
5959;SDS011;3006;50.956;7.002;2024-01-30T03:46:04;13.70;;;8.40;;
5959;SDS011;3006;50.956;7.002;2024-01-30T03:48:34;14.90;;;9.10;;
5959;SDS011;3006;50.956;7.002;2024-01-30T03:51:02;14.93;;;8.70;;
5959;SDS011;3006;50.956;7.002;2024-01-30T03:53:30;12.67;;;8.50;;
5959;SDS011;3006;50.956;7.002;2024-01-30T03:55:59;12.87;;;8.63;;
5959;SDS011;3006;50.956;7.002;2024-01-30T03:58:27;13.10;;;9.00;;
5959;SDS011;3006;50.956;7.002;2024-01-30T04:00:55;12.70;;;8.83;;
5959;SDS011;3006;50.956;7.002;2024-01-30T04:03:23;10.67;;;9.30;;
5959;SDS011;3006;50.956;7.002;2024-01-30T04:05:53;14.50;;;9.57;;
5959;SDS011;3006;50.956;7.002;2024-01-30T04:08:21;10.60;;;8.97;;
5959;SDS011;3006;50.956;7.002;2024-01-30T04:10:49;14.03;;;9.37;;
5959;SDS011;3006;50.956;7.002;2024-01-30T04:13:17;9.07;;;7.90;;
5959;SDS011;3006;50.956;7.002;2024-01-30T04:15:45;12.00;;;8.70;;
5959;SDS011;3006;50.956;7.002;2024-01-30T04:18:14;14.20;;;8.73;;
5959;SDS011;3006;50.956;7.002;2024-01-30T04:20:42;10.27;;;8.70;;
5959;SDS011;3006;50.956;7.002;2024-01-30T04:23:11;11.57;;;8.73;;
5959;SDS011;3006;50.956;7.002;2024-01-30T04:25:40;10.43;;;9.13;;
5959;SDS011;3006;50.956;7.002;2024-01-30T04:28:08;11.57;;;9.00;;
5959;SDS011;3006;50.956;7.002;2024-01-30T04:30:36;11.97;;;8.83;;
5959;SDS011;3006;50.956;7.002;2024-01-30T04:33:04;14.43;;;8.70;;
5959;SDS011;3006;50.956;7.002;2024-01-30T04:35:33;11.47;;;7.93;;
5959;SDS011;3006;50.956;7.002;2024-01-30T04:38:01;12.60;;;8.70;;
5959;SDS011;3006;50.956;7.002;2024-01-30T04:40:30;17.60;;;9.57;;
5959;SDS011;3006;50.956;7.002;2024-01-30T04:42:59;16.10;;;10.30;;
5959;SDS011;3006;50.956;7.002;2024-01-30T04:45:27;15.57;;;8.93;;
5959;SDS011;3006;50.956;7.002;2024-01-30T04:47:55;17.47;;;9.27;;
5959;SDS011;3006;50.956;7.002;2024-01-30T04:50:23;12.67;;;8.53;;
5959;SDS011;3006;50.956;7.002;2024-01-30T04:52:53;11.70;;;8.60;;
5959;SDS011;3006;50.956;7.002;2024-01-30T04:55:21;12.67;;;9.00;;
5959;SDS011;3006;50.956;7.002;2024-01-30T04:57:50;11.90;;;9.43;;
5959;SDS011;3006;50.956;7.002;2024-01-30T05:00:19;16.40;;;9.37;;
5959;SDS011;3006;50.956;7.002;2024-01-30T05:02:47;14.50;;;8.57;;
5959;SDS011;3006;50.956;7.002;2024-01-30T05:05:15;15.50;;;8.93;;
5959;SDS011;3006;50.956;7.002;2024-01-30T05:07:43;16.23;;;9.07;;
5959;SDS011;3006;50.956;7.002;2024-01-30T05:10:11;10.43;;;8.93;;
5959;SDS011;3006;50.956;7.002;2024-01-30T05:12:39;15.90;;;9.20;;
5959;SDS011;3006;50.956;7.002;2024-01-30T05:15:09;13.20;;;9.10;;
5959;SDS011;3006;50.956;7.002;2024-01-30T05:17:38;11.57;;;8.80;;
5959;SDS011;3006;50.956;7.002;2024-01-30T05:20:06;11.63;;;9.00;;
5959;SDS011;3006;50.956;7.002;2024-01-30T05:22:37;12.30;;;9.73;;
5959;SDS011;3006;50.956;7.002;2024-01-30T05:25:12;12.47;;;8.70;;
5959;SDS011;3006;50.956;7.002;2024-01-30T05:27:40;10.27;;;8.00;;
5959;SDS011;3006;50.956;7.002;2024-01-30T05:30:10;13.03;;;8.83;;
5959;SDS011;3006;50.956;7.002;2024-01-30T05:32:39;9.30;;;7.73;;
5959;SDS011;3006;50.956;7.002;2024-01-30T05:35:07;15.30;;;8.80;;
5959;SDS011;3006;50.956;7.002;2024-01-30T05:37:35;13.13;;;8.10;;
5959;SDS011;3006;50.956;7.002;2024-01-30T05:40:04;19.23;;;8.57;;
5959;SDS011;3006;50.956;7.002;2024-01-30T05:42:33;11.90;;;8.63;;
5959;SDS011;3006;50.956;7.002;2024-01-30T05:45:01;17.10;;;8.90;;
5959;SDS011;3006;50.956;7.002;2024-01-30T05:47:30;10.37;;;8.03;;
5959;SDS011;3006;50.956;7.002;2024-01-30T05:49:58;11.67;;;9.07;;
5959;SDS011;3006;50.956;7.002;2024-01-30T05:52:27;12.00;;;8.47;;
5959;SDS011;3006;50.956;7.002;2024-01-30T05:54:55;14.20;;;9.00;;
5959;SDS011;3006;50.956;7.002;2024-01-30T05:57:23;10.27;;;8.17;;
5959;SDS011;3006;50.956;7.002;2024-01-30T05:59:52;12.03;;;8.63;;
5959;SDS011;3006;50.956;7.002;2024-01-30T06:02:20;17.33;;;9.67;;
5959;SDS011;3006;50.956;7.002;2024-01-30T06:04:49;11.60;;;8.80;;
5959;SDS011;3006;50.956;7.002;2024-01-30T06:07:18;10.73;;;7.90;;
5959;SDS011;3006;50.956;7.002;2024-01-30T06:09:46;21.00;;;11.90;;
5959;SDS011;3006;50.956;7.002;2024-01-30T06:12:14;17.00;;;10.00;;
5959;SDS011;3006;50.956;7.002;2024-01-30T06:14:42;10.90;;;8.50;;
5959;SDS011;3006;50.956;7.002;2024-01-30T06:17:13;13.73;;;8.80;;
5959;SDS011;3006;50.956;7.002;2024-01-30T06:19:41;13.60;;;8.77;;
5959;SDS011;3006;50.956;7.002;2024-01-30T06:22:11;10.90;;;8.63;;
5959;SDS011;3006;50.956;7.002;2024-01-30T06:24:39;12.57;;;8.20;;
5959;SDS011;3006;50.956;7.002;2024-01-30T06:27:07;12.70;;;8.50;;
5959;SDS011;3006;50.956;7.002;2024-01-30T06:29:36;16.17;;;7.73;;
5959;SDS011;3006;50.956;7.002;2024-01-30T06:32:04;14.47;;;8.53;;
5959;SDS011;3006;50.956;7.002;2024-01-30T06:34:33;12.37;;;9.20;;
5959;SDS011;3006;50.956;7.002;2024-01-30T06:37:01;10.30;;;7.97;;
5959;SDS011;3006;50.956;7.002;2024-01-30T06:39:31;11.10;;;8.03;;
5959;SDS011;3006;50.956;7.002;2024-01-30T06:41:59;10.90;;;8.10;;
5959;SDS011;3006;50.956;7.002;2024-01-30T06:44:27;11.33;;;8.90;;
5959;SDS011;3006;50.956;7.002;2024-01-30T06:46:58;9.30;;;8.13;;
5959;SDS011;3006;50.956;7.002;2024-01-30T06:49:27;11.80;;;8.60;;
5959;SDS011;3006;50.956;7.002;2024-01-30T06:51:55;12.53;;;8.73;;
5959;SDS011;3006;50.956;7.002;2024-01-30T06:54:23;10.87;;;8.80;;
5959;SDS011;3006;50.956;7.002;2024-01-30T06:56:53;12.53;;;8.60;;
5959;SDS011;3006;50.956;7.002;2024-01-30T06:59:21;14.10;;;9.20;;
5959;SDS011;3006;50.956;7.002;2024-01-30T07:01:49;11.30;;;8.20;;
5959;SDS011;3006;50.956;7.002;2024-01-30T07:04:17;12.33;;;8.80;;
5959;SDS011;3006;50.956;7.002;2024-01-30T07:06:45;12.40;;;9.30;;
5959;SDS011;3006;50.956;7.002;2024-01-30T07:09:14;13.40;;;8.57;;
5959;SDS011;3006;50.956;7.002;2024-01-30T07:11:42;11.73;;;8.70;;
5959;SDS011;3006;50.956;7.002;2024-01-30T07:14:11;11.10;;;8.47;;
5959;SDS011;3006;50.956;7.002;2024-01-30T07:16:39;15.47;;;8.93;;
5959;SDS011;3006;50.956;7.002;2024-01-30T07:19:08;15.27;;;9.60;;
5959;SDS011;3006;50.956;7.002;2024-01-30T07:21:36;13.40;;;9.20;;
5959;SDS011;3006;50.956;7.002;2024-01-30T07:24:07;14.07;;;9.40;;
5959;SDS011;3006;50.956;7.002;2024-01-30T07:26:35;18.27;;;9.50;;
5959;SDS011;3006;50.956;7.002;2024-01-30T07:29:03;12.80;;;9.80;;
5959;SDS011;3006;50.956;7.002;2024-01-30T07:31:32;19.83;;;9.77;;
5959;SDS011;3006;50.956;7.002;2024-01-30T07:34:01;16.43;;;9.53;;
5959;SDS011;3006;50.956;7.002;2024-01-30T07:36:31;14.93;;;8.13;;
5959;SDS011;3006;50.956;7.002;2024-01-30T07:38:59;15.03;;;9.50;;
5959;SDS011;3006;50.956;7.002;2024-01-30T07:41:27;14.40;;;9.77;;
5959;SDS011;3006;50.956;7.002;2024-01-30T07:43:55;11.67;;;9.03;;
5959;SDS011;3006;50.956;7.002;2024-01-30T07:46:23;14.00;;;9.63;;
5959;SDS011;3006;50.956;7.002;2024-01-30T07:48:53;14.00;;;9.70;;
5959;SDS011;3006;50.956;7.002;2024-01-30T07:51:22;14.80;;;9.20;;
5959;SDS011;3006;50.956;7.002;2024-01-30T07:53:51;12.80;;;9.33;;
5959;SDS011;3006;50.956;7.002;2024-01-30T07:56:19;11.10;;;9.13;;
5959;SDS011;3006;50.956;7.002;2024-01-30T07:58:47;15.73;;;8.60;;
5959;SDS011;3006;50.956;7.002;2024-01-30T08:01:15;13.30;;;9.00;;
5959;SDS011;3006;50.956;7.002;2024-01-30T08:03:44;17.30;;;8.47;;
5959;SDS011;3006;50.956;7.002;2024-01-30T08:06:13;11.40;;;8.93;;
5959;SDS011;3006;50.956;7.002;2024-01-30T08:08:41;12.20;;;8.67;;
5959;SDS011;3006;50.956;7.002;2024-01-30T08:11:09;11.30;;;7.70;;
5959;SDS011;3006;50.956;7.002;2024-01-30T08:13:37;13.23;;;9.87;;
5959;SDS011;3006;50.956;7.002;2024-01-30T08:16:06;14.97;;;8.80;;
5959;SDS011;3006;50.956;7.002;2024-01-30T08:18:39;14.63;;;8.80;;
5959;SDS011;3006;50.956;7.002;2024-01-30T08:21:07;13.17;;;9.60;;
5959;SDS011;3006;50.956;7.002;2024-01-30T08:23:37;16.70;;;8.97;;
5959;SDS011;3006;50.956;7.002;2024-01-30T08:26:05;11.20;;;8.70;;
5959;SDS011;3006;50.956;7.002;2024-01-30T08:28:33;15.00;;;8.50;;
5959;SDS011;3006;50.956;7.002;2024-01-30T08:31:02;14.63;;;9.00;;
5959;SDS011;3006;50.956;7.002;2024-01-30T08:33:30;15.30;;;9.10;;
5959;SDS011;3006;50.956;7.002;2024-01-30T08:35:58;12.33;;;9.20;;
5959;SDS011;3006;50.956;7.002;2024-01-30T08:38:26;12.43;;;9.00;;
5959;SDS011;3006;50.956;7.002;2024-01-30T08:40:56;14.63;;;10.00;;
5959;SDS011;3006;50.956;7.002;2024-01-30T08:43:24;12.60;;;9.00;;
5959;SDS011;3006;50.956;7.002;2024-01-30T08:45:53;11.87;;;8.90;;
5959;SDS011;3006;50.956;7.002;2024-01-30T08:48:23;11.60;;;9.40;;
5959;SDS011;3006;50.956;7.002;2024-01-30T08:50:51;14.23;;;9.50;;
5959;SDS011;3006;50.956;7.002;2024-01-30T08:53:20;20.23;;;8.73;;
5959;SDS011;3006;50.956;7.002;2024-01-30T08:55:48;19.23;;;9.83;;
5959;SDS011;3006;50.956;7.002;2024-01-30T08:58:17;13.60;;;9.17;;
5959;SDS011;3006;50.956;7.002;2024-01-30T09:00:46;13.60;;;9.60;;
5959;SDS011;3006;50.956;7.002;2024-01-30T09:03:14;17.33;;;9.33;;
5959;SDS011;3006;50.956;7.002;2024-01-30T09:05:42;14.50;;;10.30;;
5959;SDS011;3006;50.956;7.002;2024-01-30T09:08:10;13.83;;;9.63;;
5959;SDS011;3006;50.956;7.002;2024-01-30T09:10:39;19.63;;;10.90;;
5959;SDS011;3006;50.956;7.002;2024-01-30T09:13:07;18.43;;;11.10;;
5959;SDS011;3006;50.956;7.002;2024-01-30T09:15:37;19.67;;;10.40;;
5959;SDS011;3006;50.956;7.002;2024-01-30T09:18:05;15.10;;;10.00;;
5959;SDS011;3006;50.956;7.002;2024-01-30T09:20:34;17.20;;;11.40;;
5959;SDS011;3006;50.956;7.002;2024-01-30T09:23:02;16.20;;;10.37;;
5959;SDS011;3006;50.956;7.002;2024-01-30T09:25:30;17.23;;;9.60;;
5959;SDS011;3006;50.956;7.002;2024-01-30T09:27:59;19.60;;;10.37;;
5959;SDS011;3006;50.956;7.002;2024-01-30T09:30:27;15.33;;;9.80;;
5959;SDS011;3006;50.956;7.002;2024-01-30T09:32:57;13.30;;;8.97;;
5959;SDS011;3006;50.956;7.002;2024-01-30T09:35:25;14.10;;;10.10;;
5959;SDS011;3006;50.956;7.002;2024-01-30T09:37:53;17.40;;;10.57;;
5959;SDS011;3006;50.956;7.002;2024-01-30T09:40:21;16.27;;;10.50;;
5959;SDS011;3006;50.956;7.002;2024-01-30T09:42:50;21.33;;;10.10;;
5959;SDS011;3006;50.956;7.002;2024-01-30T09:45:18;14.83;;;9.60;;
5959;SDS011;3006;50.956;7.002;2024-01-30T09:47:47;16.13;;;10.00;;
5959;SDS011;3006;50.956;7.002;2024-01-30T09:50:16;15.83;;;9.73;;
5959;SDS011;3006;50.956;7.002;2024-01-30T09:52:45;14.93;;;9.60;;
5959;SDS011;3006;50.956;7.002;2024-01-30T09:55:14;15.13;;;9.43;;
5959;SDS011;3006;50.956;7.002;2024-01-30T09:57:43;14.33;;;9.00;;
5959;SDS011;3006;50.956;7.002;2024-01-30T10:00:12;15.80;;;9.47;;
5959;SDS011;3006;50.956;7.002;2024-01-30T10:02:40;13.23;;;9.10;;
5959;SDS011;3006;50.956;7.002;2024-01-30T10:05:09;13.93;;;9.20;;
5959;SDS011;3006;50.956;7.002;2024-01-30T10:07:52;13.90;;;8.83;;
5959;SDS011;3006;50.956;7.002;2024-01-30T10:10:21;16.07;;;8.60;;
5959;SDS011;3006;50.956;7.002;2024-01-30T10:12:50;11.47;;;7.90;;
5959;SDS011;3006;50.956;7.002;2024-01-30T10:15:19;12.07;;;8.70;;
5959;SDS011;3006;50.956;7.002;2024-01-30T10:17:47;15.07;;;8.67;;
5959;SDS011;3006;50.956;7.002;2024-01-30T10:20:15;13.10;;;8.80;;
5959;SDS011;3006;50.956;7.002;2024-01-30T10:22:44;11.90;;;8.67;;
5959;SDS011;3006;50.956;7.002;2024-01-30T10:25:14;14.47;;;9.10;;
5959;SDS011;3006;50.956;7.002;2024-01-30T10:27:43;12.53;;;8.87;;
5959;SDS011;3006;50.956;7.002;2024-01-30T10:30:11;15.17;;;8.93;;
5959;SDS011;3006;50.956;7.002;2024-01-30T10:32:40;12.87;;;9.27;;
5959;SDS011;3006;50.956;7.002;2024-01-30T10:35:08;13.90;;;8.63;;
5959;SDS011;3006;50.956;7.002;2024-01-30T10:37:37;10.50;;;8.47;;
5959;SDS011;3006;50.956;7.002;2024-01-30T10:40:06;11.90;;;9.27;;
5959;SDS011;3006;50.956;7.002;2024-01-30T10:42:37;14.73;;;8.90;;
5959;SDS011;3006;50.956;7.002;2024-01-30T10:45:10;14.53;;;8.70;;
5959;SDS011;3006;50.956;7.002;2024-01-30T10:47:40;12.30;;;8.67;;
5959;SDS011;3006;50.956;7.002;2024-01-30T10:50:10;14.70;;;9.20;;
5959;SDS011;3006;50.956;7.002;2024-01-30T10:52:39;19.00;;;9.00;;
5959;SDS011;3006;50.956;7.002;2024-01-30T10:55:10;13.50;;;9.40;;
5959;SDS011;3006;50.956;7.002;2024-01-30T10:57:40;19.93;;;9.60;;
5959;SDS011;3006;50.956;7.002;2024-01-30T11:00:08;21.40;;;9.87;;
5959;SDS011;3006;50.956;7.002;2024-01-30T11:02:40;13.70;;;7.57;;
5959;SDS011;3006;50.956;7.002;2024-01-30T11:05:09;19.53;;;10.50;;
5959;SDS011;3006;50.956;7.002;2024-01-30T11:07:38;17.70;;;8.90;;
5959;SDS011;3006;50.956;7.002;2024-01-30T11:10:08;16.40;;;8.63;;
5959;SDS011;3006;50.956;7.002;2024-01-30T11:12:41;18.57;;;8.90;;
5959;SDS011;3006;50.956;7.002;2024-01-30T11:15:11;14.63;;;9.10;;
5959;SDS011;3006;50.956;7.002;2024-01-30T11:17:41;18.63;;;8.93;;
5959;SDS011;3006;50.956;7.002;2024-01-30T11:20:10;17.30;;;8.83;;
5959;SDS011;3006;50.956;7.002;2024-01-30T11:22:41;24.63;;;9.70;;
5959;SDS011;3006;50.956;7.002;2024-01-30T11:25:11;19.40;;;9.57;;
5959;SDS011;3006;50.956;7.002;2024-01-30T11:27:42;15.03;;;8.73;;
5959;SDS011;3006;50.956;7.002;2024-01-30T11:30:20;13.33;;;9.30;;
5959;SDS011;3006;50.956;7.002;2024-01-30T11:33:01;18.73;;;10.40;;
5959;SDS011;3006;50.956;7.002;2024-01-30T11:35:33;15.40;;;9.70;;
5959;SDS011;3006;50.956;7.002;2024-01-30T11:38:02;18.77;;;10.63;;
5959;SDS011;3006;50.956;7.002;2024-01-30T11:40:32;13.70;;;8.20;;
5959;SDS011;3006;50.956;7.002;2024-01-30T11:43:03;15.13;;;9.43;;
5959;SDS011;3006;50.956;7.002;2024-01-30T11:45:32;14.93;;;9.00;;
5959;SDS011;3006;50.956;7.002;2024-01-30T11:48:01;18.83;;;9.33;;
5959;SDS011;3006;50.956;7.002;2024-01-30T11:50:31;17.67;;;9.50;;
5959;SDS011;3006;50.956;7.002;2024-01-30T11:53:01;17.90;;;10.10;;
5959;SDS011;3006;50.956;7.002;2024-01-30T11:55:29;16.03;;;10.70;;
5959;SDS011;3006;50.956;7.002;2024-01-30T11:58:01;23.40;;;10.83;;
5959;SDS011;3006;50.956;7.002;2024-01-30T12:00:32;19.37;;;10.17;;
5959;SDS011;3006;50.956;7.002;2024-01-30T12:03:02;19.17;;;9.77;;
5959;SDS011;3006;50.956;7.002;2024-01-30T12:05:32;18.83;;;9.83;;
5959;SDS011;3006;50.956;7.002;2024-01-30T12:08:02;22.27;;;10.77;;
5959;SDS011;3006;50.956;7.002;2024-01-30T12:10:30;20.53;;;10.03;;
5959;SDS011;3006;50.956;7.002;2024-01-30T12:12:59;15.47;;;9.03;;
5959;SDS011;3006;50.956;7.002;2024-01-30T12:15:30;14.77;;;8.93;;
5959;SDS011;3006;50.956;7.002;2024-01-30T12:18:05;14.90;;;9.80;;
5959;SDS011;3006;50.956;7.002;2024-01-30T12:20:34;14.87;;;9.90;;
5959;SDS011;3006;50.956;7.002;2024-01-30T12:23:03;17.83;;;9.53;;
5959;SDS011;3006;50.956;7.002;2024-01-30T12:25:31;25.87;;;9.30;;
5959;SDS011;3006;50.956;7.002;2024-01-30T12:27:59;14.73;;;8.60;;
5959;SDS011;3006;50.956;7.002;2024-01-30T12:30:28;14.30;;;9.60;;
5959;SDS011;3006;50.956;7.002;2024-01-30T12:32:58;15.10;;;8.27;;
5959;SDS011;3006;50.956;7.002;2024-01-30T12:35:26;17.67;;;8.73;;
5959;SDS011;3006;50.956;7.002;2024-01-30T12:37:58;19.73;;;9.10;;
5959;SDS011;3006;50.956;7.002;2024-01-30T12:40:27;15.73;;;8.90;;
5959;SDS011;3006;50.956;7.002;2024-01-30T12:42:56;15.30;;;9.20;;
5959;SDS011;3006;50.956;7.002;2024-01-30T12:45:24;25.67;;;9.93;;
5959;SDS011;3006;50.956;7.002;2024-01-30T12:47:53;22.73;;;9.97;;
5959;SDS011;3006;50.956;7.002;2024-01-30T12:50:23;13.43;;;9.90;;
5959;SDS011;3006;50.956;7.002;2024-01-30T12:52:51;18.63;;;10.00;;
5959;SDS011;3006;50.956;7.002;2024-01-30T12:55:19;14.53;;;9.60;;
5959;SDS011;3006;50.956;7.002;2024-01-30T12:57:48;18.73;;;9.70;;
5959;SDS011;3006;50.956;7.002;2024-01-30T13:00:16;12.30;;;8.63;;
5959;SDS011;3006;50.956;7.002;2024-01-30T13:02:44;18.50;;;9.20;;
5959;SDS011;3006;50.956;7.002;2024-01-30T13:05:13;15.63;;;9.67;;
5959;SDS011;3006;50.956;7.002;2024-01-30T13:07:43;13.10;;;9.20;;
5959;SDS011;3006;50.956;7.002;2024-01-30T13:10:11;10.67;;;8.80;;
5959;SDS011;3006;50.956;7.002;2024-01-30T13:12:39;18.10;;;10.30;;
5959;SDS011;3006;50.956;7.002;2024-01-30T13:15:08;15.37;;;9.97;;
5959;SDS011;3006;50.956;7.002;2024-01-30T13:17:37;16.90;;;10.10;;
5959;SDS011;3006;50.956;7.002;2024-01-30T13:20:06;14.80;;;9.57;;
5959;SDS011;3006;50.956;7.002;2024-01-30T13:22:38;16.73;;;8.77;;
5959;SDS011;3006;50.956;7.002;2024-01-30T13:25:08;19.30;;;9.40;;
5959;SDS011;3006;50.956;7.002;2024-01-30T13:27:36;15.97;;;9.00;;
5959;SDS011;3006;50.956;7.002;2024-01-30T13:30:06;15.10;;;9.10;;
5959;SDS011;3006;50.956;7.002;2024-01-30T13:32:36;14.20;;;8.30;;
5959;SDS011;3006;50.956;7.002;2024-01-30T13:35:04;19.50;;;8.50;;
5959;SDS011;3006;50.956;7.002;2024-01-30T13:37:33;12.73;;;8.60;;
5959;SDS011;3006;50.956;7.002;2024-01-30T13:40:02;13.33;;;8.03;;
5959;SDS011;3006;50.956;7.002;2024-01-30T13:42:38;14.80;;;9.70;;
5959;SDS011;3006;50.956;7.002;2024-01-30T13:45:06;18.30;;;8.70;;
5959;SDS011;3006;50.956;7.002;2024-01-30T13:47:36;15.50;;;9.30;;
5959;SDS011;3006;50.956;7.002;2024-01-30T13:50:05;15.80;;;6.90;;
5959;SDS011;3006;50.956;7.002;2024-01-30T13:52:33;9.97;;;7.17;;
5959;SDS011;3006;50.956;7.002;2024-01-30T13:55:10;12.50;;;6.03;;
5959;SDS011;3006;50.956;7.002;2024-01-30T13:57:39;11.23;;;6.20;;
5959;SDS011;3006;50.956;7.002;2024-01-30T14:00:08;13.43;;;6.47;;
5959;SDS011;3006;50.956;7.002;2024-01-30T14:02:40;11.80;;;6.23;;
5959;SDS011;3006;50.956;7.002;2024-01-30T14:05:08;22.10;;;6.90;;
5959;SDS011;3006;50.956;7.002;2024-01-30T14:07:37;12.00;;;6.30;;
5959;SDS011;3006;50.956;7.002;2024-01-30T14:10:07;8.10;;;5.20;;
5959;SDS011;3006;50.956;7.002;2024-01-30T14:12:41;12.93;;;6.07;;
5959;SDS011;3006;50.956;7.002;2024-01-30T14:15:11;15.13;;;5.30;;
5959;SDS011;3006;50.956;7.002;2024-01-30T14:17:53;7.23;;;5.43;;
5959;SDS011;3006;50.956;7.002;2024-01-30T14:20:23;10.97;;;5.77;;
5959;SDS011;3006;50.956;7.002;2024-01-30T14:22:51;18.23;;;6.27;;
5959;SDS011;3006;50.956;7.002;2024-01-30T14:25:22;11.20;;;6.10;;
5959;SDS011;3006;50.956;7.002;2024-01-30T14:27:52;8.20;;;4.90;;
5959;SDS011;3006;50.956;7.002;2024-01-30T14:30:20;8.33;;;5.83;;
5959;SDS011;3006;50.956;7.002;2024-01-30T14:32:49;10.30;;;5.63;;
5959;SDS011;3006;50.956;7.002;2024-01-30T14:35:17;6.70;;;5.30;;
5959;SDS011;3006;50.956;7.002;2024-01-30T14:37:47;8.27;;;5.80;;
5959;SDS011;3006;50.956;7.002;2024-01-30T14:40:15;12.40;;;5.40;;
5959;SDS011;3006;50.956;7.002;2024-01-30T14:42:45;11.53;;;6.10;;
5959;SDS011;3006;50.956;7.002;2024-01-30T14:45:14;9.67;;;6.10;;
5959;SDS011;3006;50.956;7.002;2024-01-30T14:47:43;7.73;;;5.83;;
5959;SDS011;3006;50.956;7.002;2024-01-30T14:50:12;13.70;;;6.80;;
5959;SDS011;3006;50.956;7.002;2024-01-30T14:52:43;10.90;;;5.87;;
5959;SDS011;3006;50.956;7.002;2024-01-30T14:55:11;9.90;;;6.83;;
5959;SDS011;3006;50.956;7.002;2024-01-30T14:57:39;11.17;;;6.90;;
5959;SDS011;3006;50.956;7.002;2024-01-30T15:00:09;12.50;;;8.03;;
5959;SDS011;3006;50.956;7.002;2024-01-30T15:02:39;11.50;;;6.10;;
5959;SDS011;3006;50.956;7.002;2024-01-30T15:05:07;9.40;;;6.07;;
5959;SDS011;3006;50.956;7.002;2024-01-30T15:07:37;11.33;;;6.37;;
5959;SDS011;3006;50.956;7.002;2024-01-30T15:10:07;16.20;;;6.50;;